sensor_id;sensor_type;location;lat;lon;timestamp;temperature;humidity
41457;DHT22;27197;51.752;5.220;2023-08-17T00:00:55;24.40;67.40
41457;DHT22;27197;51.752;5.220;2023-08-17T00:03:22;24.30;67.60
41457;DHT22;27197;51.752;5.220;2023-08-17T00:05:56;24.20;68.90
41457;DHT22;27197;51.752;5.220;2023-08-17T00:08:26;24.30;70.00
41457;DHT22;27197;51.752;5.220;2023-08-17T00:11:01;24.30;70.20
41457;DHT22;27197;51.752;5.220;2023-08-17T00:13:32;24.30;69.90
41457;DHT22;27197;51.752;5.220;2023-08-17T00:16:01;24.30;70.10
41457;DHT22;27197;51.752;5.220;2023-08-17T00:18:34;24.30;69.50
41457;DHT22;27197;51.752;5.220;2023-08-17T00:21:01;24.30;70.40
41457;DHT22;27197;51.752;5.220;2023-08-17T00:23:36;24.30;69.30
41457;DHT22;27197;51.752;5.220;2023-08-17T00:26:08;24.30;68.20
41457;DHT22;27197;51.752;5.220;2023-08-17T00:28:40;24.20;67.30
41457;DHT22;27197;51.752;5.220;2023-08-17T00:31:15;24.10;69.70
41457;DHT22;27197;51.752;5.220;2023-08-17T00:33:44;24.10;69.10
41457;DHT22;27197;51.752;5.220;2023-08-17T00:36:15;24.10;69.90
41457;DHT22;27197;51.752;5.220;2023-08-17T00:38:45;24.10;70.30
41457;DHT22;27197;51.752;5.220;2023-08-17T00:41:14;24.20;71.20
41457;DHT22;27197;51.752;5.220;2023-08-17T00:43:44;24.20;69.00
41457;DHT22;27197;51.752;5.220;2023-08-17T00:46:19;24.20;69.20
41457;DHT22;27197;51.752;5.220;2023-08-17T00:48:48;24.20;71.20
41457;DHT22;27197;51.752;5.220;2023-08-17T00:51:26;24.20;70.90
41457;DHT22;27197;51.752;5.220;2023-08-17T00:53:56;24.30;69.50
41457;DHT22;27197;51.752;5.220;2023-08-17T00:56:31;24.30;70.20
41457;DHT22;27197;51.752;5.220;2023-08-17T00:59:00;24.20;70.90
41457;DHT22;27197;51.752;5.220;2023-08-17T01:01:32;24.20;70.40
41457;DHT22;27197;51.752;5.220;2023-08-17T01:04:02;24.30;71.30
41457;DHT22;27197;51.752;5.220;2023-08-17T01:06:31;24.30;69.70
41457;DHT22;27197;51.752;5.220;2023-08-17T01:08:59;24.10;69.30
41457;DHT22;27197;51.752;5.220;2023-08-17T01:11:48;24.20;69.70
41457;DHT22;27197;51.752;5.220;2023-08-17T01:14:25;24.10;70.00
41457;DHT22;27197;51.752;5.220;2023-08-17T01:17:00;24.10;69.90
41457;DHT22;27197;51.752;5.220;2023-08-17T01:19:29;24.20;70.80
41457;DHT22;27197;51.752;5.220;2023-08-17T01:22:05;24.20;67.70
41457;DHT22;27197;51.752;5.220;2023-08-17T01:24:38;24.00;68.80
41457;DHT22;27197;51.752;5.220;2023-08-17T01:27:10;24.00;69.30
41457;DHT22;27197;51.752;5.220;2023-08-17T01:29:41;23.90;68.70
41457;DHT22;27197;51.752;5.220;2023-08-17T01:32:30;24.00;70.40
41457;DHT22;27197;51.752;5.220;2023-08-17T01:35:23;24.00;68.90
41457;DHT22;27197;51.752;5.220;2023-08-17T01:37:38;24.00;68.60
41457;DHT22;27197;51.752;5.220;2023-08-17T01:40:13;23.90;70.40
41457;DHT22;27197;51.752;5.220;2023-08-17T01:42:44;23.90;70.70
41457;DHT22;27197;51.752;5.220;2023-08-17T01:45:19;24.00;69.40
41457;DHT22;27197;51.752;5.220;2023-08-17T01:47:52;23.90;69.30
41457;DHT22;27197;51.752;5.220;2023-08-17T01:50:22;23.80;67.50
41457;DHT22;27197;51.752;5.220;2023-08-17T01:52:51;23.70;71.20
41457;DHT22;27197;51.752;5.220;2023-08-17T01:55:21;23.90;71.10
41457;DHT22;27197;51.752;5.220;2023-08-17T01:57:53;23.90;70.60
41457;DHT22;27197;51.752;5.220;2023-08-17T02:00:25;24.00;69.50
41457;DHT22;27197;51.752;5.220;2023-08-17T02:02:55;23.90;70.60
41457;DHT22;27197;51.752;5.220;2023-08-17T02:05:26;23.90;68.70
41457;DHT22;27197;51.752;5.220;2023-08-17T02:07:56;23.90;70.00
41457;DHT22;27197;51.752;5.220;2023-08-17T02:10:29;23.90;69.10
41457;DHT22;27197;51.752;5.220;2023-08-17T02:13:02;23.80;70.30
41457;DHT22;27197;51.752;5.220;2023-08-17T02:15:31;23.90;70.60
41457;DHT22;27197;51.752;5.220;2023-08-17T02:18:04;23.80;67.50
41457;DHT22;27197;51.752;5.220;2023-08-17T02:20:38;23.90;69.00
41457;DHT22;27197;51.752;5.220;2023-08-17T02:23:06;23.90;68.40
41457;DHT22;27197;51.752;5.220;2023-08-17T02:25:37;23.80;69.50
41457;DHT22;27197;51.752;5.220;2023-08-17T02:28:06;23.70;68.90
41457;DHT22;27197;51.752;5.220;2023-08-17T02:30:41;23.80;68.30
41457;DHT22;27197;51.752;5.220;2023-08-17T02:33:10;23.80;68.90
41457;DHT22;27197;51.752;5.220;2023-08-17T02:35:47;23.80;69.30
41457;DHT22;27197;51.752;5.220;2023-08-17T02:38:12;23.90;69.90
41457;DHT22;27197;51.752;5.220;2023-08-17T02:40:46;23.90;68.20
41457;DHT22;27197;51.752;5.220;2023-08-17T02:43:15;23.80;70.20
41457;DHT22;27197;51.752;5.220;2023-08-17T02:45:50;23.80;70.90
41457;DHT22;27197;51.752;5.220;2023-08-17T02:48:21;23.80;69.80
41457;DHT22;27197;51.752;5.220;2023-08-17T02:50:52;23.80;69.80
41457;DHT22;27197;51.752;5.220;2023-08-17T02:53:21;23.70;68.40
41457;DHT22;27197;51.752;5.220;2023-08-17T02:55:50;23.80;68.20
41457;DHT22;27197;51.752;5.220;2023-08-17T02:58:22;23.70;67.80
41457;DHT22;27197;51.752;5.220;2023-08-17T03:00:52;23.70;66.50
41457;DHT22;27197;51.752;5.220;2023-08-17T03:03:24;23.60;67.10
41457;DHT22;27197;51.752;5.220;2023-08-17T03:05:53;23.60;67.00
41457;DHT22;27197;51.752;5.220;2023-08-17T03:08:25;23.70;69.70
41457;DHT22;27197;51.752;5.220;2023-08-17T03:10:55;23.80;70.90
41457;DHT22;27197;51.752;5.220;2023-08-17T03:13:26;23.80;70.40
41457;DHT22;27197;51.752;5.220;2023-08-17T03:15:58;23.70;67.50
41457;DHT22;27197;51.752;5.220;2023-08-17T03:18:28;23.80;69.70
41457;DHT22;27197;51.752;5.220;2023-08-17T03:20:58;23.80;67.60
41457;DHT22;27197;51.752;5.220;2023-08-17T03:23:29;23.60;66.20
41457;DHT22;27197;51.752;5.220;2023-08-17T03:26:00;23.60;67.60
41457;DHT22;27197;51.752;5.220;2023-08-17T03:28:34;23.70;69.00
41457;DHT22;27197;51.752;5.220;2023-08-17T03:31:03;23.80;71.00
41457;DHT22;27197;51.752;5.220;2023-08-17T03:33:35;23.80;70.90
41457;DHT22;27197;51.752;5.220;2023-08-17T03:36:07;23.80;68.10
41457;DHT22;27197;51.752;5.220;2023-08-17T03:38:38;23.70;68.70
41457;DHT22;27197;51.752;5.220;2023-08-17T03:41:26;23.70;68.00
41457;DHT22;27197;51.752;5.220;2023-08-17T03:43:54;23.60;71.10
41457;DHT22;27197;51.752;5.220;2023-08-17T03:46:28;23.60;70.50
41457;DHT22;27197;51.752;5.220;2023-08-17T03:48:57;23.70;68.60
41457;DHT22;27197;51.752;5.220;2023-08-17T03:51:30;23.70;67.80
41457;DHT22;27197;51.752;5.220;2023-08-17T03:54:00;23.60;67.80
41457;DHT22;27197;51.752;5.220;2023-08-17T03:56:30;23.60;67.50
41457;DHT22;27197;51.752;5.220;2023-08-17T03:59:04;23.70;70.60
41457;DHT22;27197;51.752;5.220;2023-08-17T04:01:36;23.70;69.90
41457;DHT22;27197;51.752;5.220;2023-08-17T04:04:12;23.70;66.90
41457;DHT22;27197;51.752;5.220;2023-08-17T04:06:46;23.60;68.40
41457;DHT22;27197;51.752;5.220;2023-08-17T04:09:15;23.60;68.80
41457;DHT22;27197;51.752;5.220;2023-08-17T04:11:50;23.60;67.80
41457;DHT22;27197;51.752;5.220;2023-08-17T04:14:19;23.50;67.20
41457;DHT22;27197;51.752;5.220;2023-08-17T04:16:47;23.60;69.10
41457;DHT22;27197;51.752;5.220;2023-08-17T04:19:22;23.50;67.50
41457;DHT22;27197;51.752;5.220;2023-08-17T04:21:53;23.60;70.60
41457;DHT22;27197;51.752;5.220;2023-08-17T04:24:23;23.50;68.40
41457;DHT22;27197;51.752;5.220;2023-08-17T04:26:53;23.40;68.40
41457;DHT22;27197;51.752;5.220;2023-08-17T04:29:22;23.40;69.20
41457;DHT22;27197;51.752;5.220;2023-08-17T04:31:57;23.60;69.00
41457;DHT22;27197;51.752;5.220;2023-08-17T04:34:26;23.60;69.40
41457;DHT22;27197;51.752;5.220;2023-08-17T04:36:57;23.50;70.50
41457;DHT22;27197;51.752;5.220;2023-08-17T04:39:31;23.60;69.00
41457;DHT22;27197;51.752;5.220;2023-08-17T04:42:00;23.50;69.00
41457;DHT22;27197;51.752;5.220;2023-08-17T04:44:33;23.50;70.10
41457;DHT22;27197;51.752;5.220;2023-08-17T04:47:03;23.50;68.10
41457;DHT22;27197;51.752;5.220;2023-08-17T04:49:37;23.50;68.30
41457;DHT22;27197;51.752;5.220;2023-08-17T04:52:10;23.60;69.20
41457;DHT22;27197;51.752;5.220;2023-08-17T04:54:42;23.50;65.90
41457;DHT22;27197;51.752;5.220;2023-08-17T04:57:15;23.60;68.90
41457;DHT22;27197;51.752;5.220;2023-08-17T04:59:46;23.70;69.90
41457;DHT22;27197;51.752;5.220;2023-08-17T05:02:18;23.70;69.70
41457;DHT22;27197;51.752;5.220;2023-08-17T05:04:48;23.60;68.40
41457;DHT22;27197;51.752;5.220;2023-08-17T05:07:22;23.50;68.20
41457;DHT22;27197;51.752;5.220;2023-08-17T05:09:55;23.40;69.60
41457;DHT22;27197;51.752;5.220;2023-08-17T05:12:27;23.60;71.60
41457;DHT22;27197;51.752;5.220;2023-08-17T05:14:55;23.60;70.10
41457;DHT22;27197;51.752;5.220;2023-08-17T05:17:29;23.50;66.70
41457;DHT22;27197;51.752;5.220;2023-08-17T05:19:58;23.40;70.20
41457;DHT22;27197;51.752;5.220;2023-08-17T05:22:26;23.50;67.30
41457;DHT22;27197;51.752;5.220;2023-08-17T05:24:58;23.50;69.50
41457;DHT22;27197;51.752;5.220;2023-08-17T05:27:31;23.30;69.00
41457;DHT22;27197;51.752;5.220;2023-08-17T05:30:02;23.50;68.70
41457;DHT22;27197;51.752;5.220;2023-08-17T05:32:32;23.40;68.70
41457;DHT22;27197;51.752;5.220;2023-08-17T05:35:07;23.40;69.80
41457;DHT22;27197;51.752;5.220;2023-08-17T05:37:35;23.30;67.90
41457;DHT22;27197;51.752;5.220;2023-08-17T05:40:08;23.30;69.90
41457;DHT22;27197;51.752;5.220;2023-08-17T05:42:42;23.40;69.00
41457;DHT22;27197;51.752;5.220;2023-08-17T05:45:13;23.50;69.90
41457;DHT22;27197;51.752;5.220;2023-08-17T05:47:48;23.50;69.70
41457;DHT22;27197;51.752;5.220;2023-08-17T05:50:17;23.50;68.70
41457;DHT22;27197;51.752;5.220;2023-08-17T05:52:47;23.40;68.90
41457;DHT22;27197;51.752;5.220;2023-08-17T05:55:17;23.50;68.90
41457;DHT22;27197;51.752;5.220;2023-08-17T05:57:49;23.50;68.70
41457;DHT22;27197;51.752;5.220;2023-08-17T06:00:18;23.50;68.60
41457;DHT22;27197;51.752;5.220;2023-08-17T06:02:50;23.60;71.10
41457;DHT22;27197;51.752;5.220;2023-08-17T06:05:25;23.60;68.80
41457;DHT22;27197;51.752;5.220;2023-08-17T06:07:58;23.50;70.10
41457;DHT22;27197;51.752;5.220;2023-08-17T06:10:27;23.60;71.50
41457;DHT22;27197;51.752;5.220;2023-08-17T06:13:00;23.60;70.60
41457;DHT22;27197;51.752;5.220;2023-08-17T06:15:30;23.50;68.30
41457;DHT22;27197;51.752;5.220;2023-08-17T06:18:01;23.60;70.10
41457;DHT22;27197;51.752;5.220;2023-08-17T06:20:33;23.60;70.30
41457;DHT22;27197;51.752;5.220;2023-08-17T06:23:03;23.70;70.90
41457;DHT22;27197;51.752;5.220;2023-08-17T06:25:31;23.60;68.10
41457;DHT22;27197;51.752;5.220;2023-08-17T06:28:05;23.50;70.00
41457;DHT22;27197;51.752;5.220;2023-08-17T06:30:35;23.60;72.00
41457;DHT22;27197;51.752;5.220;2023-08-17T06:33:05;23.70;69.90
41457;DHT22;27197;51.752;5.220;2023-08-17T06:38:23;23.70;69.00
41457;DHT22;27197;51.752;5.220;2023-08-17T06:40:52;23.60;70.40
41457;DHT22;27197;51.752;5.220;2023-08-17T06:43:22;23.70;68.20
41457;DHT22;27197;51.752;5.220;2023-08-17T06:45:51;23.70;69.40
41457;DHT22;27197;51.752;5.220;2023-08-17T06:48:20;23.70;69.90
41457;DHT22;27197;51.752;5.220;2023-08-17T06:50:51;23.70;69.70
41457;DHT22;27197;51.752;5.220;2023-08-17T06:53:24;23.70;70.20
41457;DHT22;27197;51.752;5.220;2023-08-17T06:55:53;23.80;69.50
41457;DHT22;27197;51.752;5.220;2023-08-17T06:58:25;23.70;67.80
41457;DHT22;27197;51.752;5.220;2023-08-17T07:01:13;23.60;71.00
41457;DHT22;27197;51.752;5.220;2023-08-17T07:03:41;23.60;70.60
41457;DHT22;27197;51.752;5.220;2023-08-17T07:06:16;23.60;69.20
41457;DHT22;27197;51.752;5.220;2023-08-17T07:08:44;23.80;71.90
41457;DHT22;27197;51.752;5.220;2023-08-17T07:11:19;23.80;71.00
41457;DHT22;27197;51.752;5.220;2023-08-17T07:13:47;23.90;70.60
41457;DHT22;27197;51.752;5.220;2023-08-17T07:16:19;23.90;70.30
41457;DHT22;27197;51.752;5.220;2023-08-17T07:18:53;23.80;71.30
41457;DHT22;27197;51.752;5.220;2023-08-17T07:21:22;23.90;71.80
41457;DHT22;27197;51.752;5.220;2023-08-17T07:23:57;24.00;71.30
41457;DHT22;27197;51.752;5.220;2023-08-17T07:26:25;24.00;70.70
41457;DHT22;27197;51.752;5.220;2023-08-17T07:28:59;24.00;71.30
41457;DHT22;27197;51.752;5.220;2023-08-17T07:31:28;24.00;69.60
41457;DHT22;27197;51.752;5.220;2023-08-17T07:33:57;24.00;70.10
41457;DHT22;27197;51.752;5.220;2023-08-17T07:36:27;24.00;70.70
41457;DHT22;27197;51.752;5.220;2023-08-17T07:38:57;24.00;71.10
41457;DHT22;27197;51.752;5.220;2023-08-17T07:41:25;24.10;71.30
41457;DHT22;27197;51.752;5.220;2023-08-17T07:43:55;24.10;70.80
41457;DHT22;27197;51.752;5.220;2023-08-17T07:46:26;24.10;70.00
41457;DHT22;27197;51.752;5.220;2023-08-17T07:48:58;24.10;70.20
41457;DHT22;27197;51.752;5.220;2023-08-17T07:51:30;24.10;70.90
41457;DHT22;27197;51.752;5.220;2023-08-17T07:54:02;24.10;70.40
41457;DHT22;27197;51.752;5.220;2023-08-17T07:56:32;24.10;71.10
41457;DHT22;27197;51.752;5.220;2023-08-17T07:59:04;24.10;70.00
41457;DHT22;27197;51.752;5.220;2023-08-17T08:01:38;24.10;70.90
41457;DHT22;27197;51.752;5.220;2023-08-17T08:04:07;24.20;71.20
41457;DHT22;27197;51.752;5.220;2023-08-17T08:06:42;24.20;69.80
41457;DHT22;27197;51.752;5.220;2023-08-17T08:09:12;24.20;69.70
41457;DHT22;27197;51.752;5.220;2023-08-17T08:11:39;24.10;70.70
41457;DHT22;27197;51.752;5.220;2023-08-17T08:14:11;24.10;70.60
41457;DHT22;27197;51.752;5.220;2023-08-17T08:16:43;24.10;70.90
41457;DHT22;27197;51.752;5.220;2023-08-17T08:19:16;24.10;70.50
41457;DHT22;27197;51.752;5.220;2023-08-17T08:21:46;24.10;70.80
41457;DHT22;27197;51.752;5.220;2023-08-17T08:24:15;24.10;69.90
41457;DHT22;27197;51.752;5.220;2023-08-17T08:26:48;24.10;70.50
41457;DHT22;27197;51.752;5.220;2023-08-17T08:29:17;24.20;70.40
41457;DHT22;27197;51.752;5.220;2023-08-17T08:31:46;24.10;70.40
41457;DHT22;27197;51.752;5.220;2023-08-17T08:34:22;24.10;70.10
41457;DHT22;27197;51.752;5.220;2023-08-17T08:36:48;24.10;70.20
41457;DHT22;27197;51.752;5.220;2023-08-17T08:39:19;24.10;70.80
41457;DHT22;27197;51.752;5.220;2023-08-17T08:41:51;24.10;70.90
41457;DHT22;27197;51.752;5.220;2023-08-17T08:44:23;24.10;71.60
41457;DHT22;27197;51.752;5.220;2023-08-17T08:46:55;24.10;71.00
41457;DHT22;27197;51.752;5.220;2023-08-17T08:49:25;24.20;69.50
41457;DHT22;27197;51.752;5.220;2023-08-17T08:52:00;24.20;71.10
41457;DHT22;27197;51.752;5.220;2023-08-17T08:54:30;24.20;71.00
41457;DHT22;27197;51.752;5.220;2023-08-17T08:57:03;24.20;70.70
41457;DHT22;27197;51.752;5.220;2023-08-17T08:59:35;24.20;70.40
41457;DHT22;27197;51.752;5.220;2023-08-17T09:02:06;24.20;70.30
41457;DHT22;27197;51.752;5.220;2023-08-17T09:04:38;24.10;71.30
41457;DHT22;27197;51.752;5.220;2023-08-17T09:07:11;24.20;71.00
41457;DHT22;27197;51.752;5.220;2023-08-17T09:09:44;24.10;70.40
41457;DHT22;27197;51.752;5.220;2023-08-17T09:12:12;24.20;71.20
41457;DHT22;27197;51.752;5.220;2023-08-17T09:14:41;24.10;70.70
41457;DHT22;27197;51.752;5.220;2023-08-17T09:17:12;24.10;70.60
41457;DHT22;27197;51.752;5.220;2023-08-17T09:19:47;24.10;70.40
41457;DHT22;27197;51.752;5.220;2023-08-17T09:22:22;24.20;71.20
41457;DHT22;27197;51.752;5.220;2023-08-17T09:24:55;24.20;71.10
41457;DHT22;27197;51.752;5.220;2023-08-17T09:27:24;24.20;71.20
41457;DHT22;27197;51.752;5.220;2023-08-17T09:32:42;24.30;70.80
41457;DHT22;27197;51.752;5.220;2023-08-17T09:35:09;24.20;70.10
41457;DHT22;27197;51.752;5.220;2023-08-17T09:37:40;24.20;70.70
41457;DHT22;27197;51.752;5.220;2023-08-17T09:40:14;24.20;70.40
41457;DHT22;27197;51.752;5.220;2023-08-17T09:42:45;24.20;71.10
41457;DHT22;27197;51.752;5.220;2023-08-17T09:45:23;24.30;71.20
41457;DHT22;27197;51.752;5.220;2023-08-17T09:47:47;24.30;71.20
41457;DHT22;27197;51.752;5.220;2023-08-17T09:50:23;24.30;71.10
41457;DHT22;27197;51.752;5.220;2023-08-17T09:52:56;24.30;71.00
41457;DHT22;27197;51.752;5.220;2023-08-17T09:55:33;24.30;71.10
41457;DHT22;27197;51.752;5.220;2023-08-17T09:58:03;24.30;71.10
41457;DHT22;27197;51.752;5.220;2023-08-17T10:00:34;24.30;70.90
41457;DHT22;27197;51.752;5.220;2023-08-17T10:03:06;24.30;71.00
41457;DHT22;27197;51.752;5.220;2023-08-17T10:05:59;24.30;71.00
41457;DHT22;27197;51.752;5.220;2023-08-17T10:08:26;24.30;71.00
41457;DHT22;27197;51.752;5.220;2023-08-17T10:10:59;24.40;71.00
41457;DHT22;27197;51.752;5.220;2023-08-17T10:13:31;24.30;70.80
41457;DHT22;27197;51.752;5.220;2023-08-17T10:16:09;24.30;71.10
41457;DHT22;27197;51.752;5.220;2023-08-17T10:18:56;24.30;71.10
41457;DHT22;27197;51.752;5.220;2023-08-17T10:22:26;24.30;70.60
41457;DHT22;27197;51.752;5.220;2023-08-17T10:24:13;24.30;71.00
41457;DHT22;27197;51.752;5.220;2023-08-17T10:26:48;24.30;70.40
41457;DHT22;27197;51.752;5.220;2023-08-17T10:29:21;24.30;70.70
41457;DHT22;27197;51.752;5.220;2023-08-17T10:31:51;24.30;71.10
41457;DHT22;27197;51.752;5.220;2023-08-17T10:34:24;24.30;70.90
41457;DHT22;27197;51.752;5.220;2023-08-17T10:36:56;24.20;70.70
41457;DHT22;27197;51.752;5.220;2023-08-17T10:39:27;24.20;70.90
41457;DHT22;27197;51.752;5.220;2023-08-17T10:41:59;24.20;71.20
41457;DHT22;27197;51.752;5.220;2023-08-17T10:44:48;24.20;71.30
41457;DHT22;27197;51.752;5.220;2023-08-17T10:47:24;24.30;72.00
41457;DHT22;27197;51.752;5.220;2023-08-17T10:50:20;24.30;71.20
41457;DHT22;27197;51.752;5.220;2023-08-17T10:52:39;24.30;71.00
41457;DHT22;27197;51.752;5.220;2023-08-17T10:55:11;24.30;70.90
41457;DHT22;27197;51.752;5.220;2023-08-17T10:57:45;24.30;70.90
41457;DHT22;27197;51.752;5.220;2023-08-17T11:03:10;24.30;71.10
41457;DHT22;27197;51.752;5.220;2023-08-17T11:05:52;24.30;71.10
41457;DHT22;27197;51.752;5.220;2023-08-17T11:08:34;24.30;71.20
41457;DHT22;27197;51.752;5.220;2023-08-17T11:11:11;24.30;71.10
41457;DHT22;27197;51.752;5.220;2023-08-17T11:13:44;24.30;70.60
41457;DHT22;27197;51.752;5.220;2023-08-17T11:16:15;24.30;70.80
41457;DHT22;27197;51.752;5.220;2023-08-17T11:18:47;24.30;70.90
41457;DHT22;27197;51.752;5.220;2023-08-17T11:21:19;24.30;70.90
41457;DHT22;27197;51.752;5.220;2023-08-17T11:23:50;24.30;71.20
41457;DHT22;27197;51.752;5.220;2023-08-17T11:26:20;24.30;71.30
41457;DHT22;27197;51.752;5.220;2023-08-17T11:28:51;24.30;71.20
41457;DHT22;27197;51.752;5.220;2023-08-17T11:31:24;24.30;70.80
41457;DHT22;27197;51.752;5.220;2023-08-17T11:33:55;24.30;71.30
41457;DHT22;27197;51.752;5.220;2023-08-17T11:36:26;24.30;71.00
41457;DHT22;27197;51.752;5.220;2023-08-17T11:38:58;24.30;71.10
41457;DHT22;27197;51.752;5.220;2023-08-17T11:41:27;24.30;71.50
41457;DHT22;27197;51.752;5.220;2023-08-17T11:59:56;24.30;71.30
41457;DHT22;27197;51.752;5.220;2023-08-17T12:02:29;24.40;71.20
41457;DHT22;27197;51.752;5.220;2023-08-17T12:05:02;24.40;71.30
41457;DHT22;27197;51.752;5.220;2023-08-17T12:07:33;24.30;71.20
41457;DHT22;27197;51.752;5.220;2023-08-17T12:10:05;24.30;71.40
41457;DHT22;27197;51.752;5.220;2023-08-17T12:12:38;24.30;71.20
41457;DHT22;27197;51.752;5.220;2023-08-17T12:15:13;24.30;71.20
41457;DHT22;27197;51.752;5.220;2023-08-17T12:17:46;24.40;71.40
41457;DHT22;27197;51.752;5.220;2023-08-17T12:20:21;24.40;71.50
41457;DHT22;27197;51.752;5.220;2023-08-17T12:22:50;24.30;71.30
41457;DHT22;27197;51.752;5.220;2023-08-17T12:25:25;24.30;71.20
41457;DHT22;27197;51.752;5.220;2023-08-17T12:28:00;24.40;71.40
41457;DHT22;27197;51.752;5.220;2023-08-17T12:30:35;24.40;71.30
41457;DHT22;27197;51.752;5.220;2023-08-17T12:33:04;24.30;71.20
41457;DHT22;27197;51.752;5.220;2023-08-17T12:35:42;24.30;71.50
41457;DHT22;27197;51.752;5.220;2023-08-17T12:38:10;24.40;71.40
41457;DHT22;27197;51.752;5.220;2023-08-17T12:40:44;24.40;71.30
41457;DHT22;27197;51.752;5.220;2023-08-17T12:43:14;24.40;71.00
41457;DHT22;27197;51.752;5.220;2023-08-17T12:45:49;24.40;71.50
41457;DHT22;27197;51.752;5.220;2023-08-17T12:48:20;24.30;71.20
41457;DHT22;27197;51.752;5.220;2023-08-17T12:50:50;24.30;71.30
41457;DHT22;27197;51.752;5.220;2023-08-17T12:53:22;24.30;70.90
41457;DHT22;27197;51.752;5.220;2023-08-17T12:55:52;24.30;71.40
41457;DHT22;27197;51.752;5.220;2023-08-17T12:58:26;24.30;71.40
41457;DHT22;27197;51.752;5.220;2023-08-17T13:00:55;24.30;71.40
41457;DHT22;27197;51.752;5.220;2023-08-17T13:03:25;24.30;71.40
41457;DHT22;27197;51.752;5.220;2023-08-17T13:05:59;24.30;71.50
41457;DHT22;27197;51.752;5.220;2023-08-17T13:08:28;24.30;71.40
41457;DHT22;27197;51.752;5.220;2023-08-17T13:11:01;24.40;71.50
41457;DHT22;27197;51.752;5.220;2023-08-17T13:13:33;24.40;71.30
41457;DHT22;27197;51.752;5.220;2023-08-17T13:16:07;24.40;71.40
41457;DHT22;27197;51.752;5.220;2023-08-17T13:18:37;24.40;71.40
41457;DHT22;27197;51.752;5.220;2023-08-17T13:21:08;24.40;71.40
41457;DHT22;27197;51.752;5.220;2023-08-17T13:23:37;24.30;71.40
41457;DHT22;27197;51.752;5.220;2023-08-17T13:26:09;24.30;71.90
41457;DHT22;27197;51.752;5.220;2023-08-17T13:28:40;24.30;70.30
41457;DHT22;27197;51.752;5.220;2023-08-17T13:31:10;24.30;71.30
41457;DHT22;27197;51.752;5.220;2023-08-17T13:33:39;24.30;72.00
41457;DHT22;27197;51.752;5.220;2023-08-17T13:36:10;24.30;71.50
41457;DHT22;27197;51.752;5.220;2023-08-17T13:38:41;24.30;71.50
41457;DHT22;27197;51.752;5.220;2023-08-17T13:41:14;24.40;71.60
41457;DHT22;27197;51.752;5.220;2023-08-17T13:43:47;24.40;71.50
41457;DHT22;27197;51.752;5.220;2023-08-17T13:46:22;24.30;71.30
41457;DHT22;27197;51.752;5.220;2023-08-17T13:48:52;24.30;71.60
41457;DHT22;27197;51.752;5.220;2023-08-17T13:51:26;24.40;71.50
41457;DHT22;27197;51.752;5.220;2023-08-17T13:53:57;24.40;71.40
41457;DHT22;27197;51.752;5.220;2023-08-17T13:56:27;24.40;71.50
41457;DHT22;27197;51.752;5.220;2023-08-17T13:59:01;24.40;71.60
41457;DHT22;27197;51.752;5.220;2023-08-17T14:01:31;24.40;71.50
41457;DHT22;27197;51.752;5.220;2023-08-17T14:04:03;24.40;71.80
41457;DHT22;27197;51.752;5.220;2023-08-17T14:06:37;24.30;71.20
41457;DHT22;27197;51.752;5.220;2023-08-17T14:09:27;24.30;71.60
41457;DHT22;27197;51.752;5.220;2023-08-17T14:11:56;24.40;71.70
41457;DHT22;27197;51.752;5.220;2023-08-17T14:14:26;24.40;71.60
41457;DHT22;27197;51.752;5.220;2023-08-17T14:16:58;24.40;71.80
41457;DHT22;27197;51.752;5.220;2023-08-17T14:19:29;24.40;71.50
41457;DHT22;27197;51.752;5.220;2023-08-17T14:22:00;24.40;71.80
41457;DHT22;27197;51.752;5.220;2023-08-17T14:24:32;24.40;71.50
41457;DHT22;27197;51.752;5.220;2023-08-17T14:27:04;24.40;71.70
41457;DHT22;27197;51.752;5.220;2023-08-17T14:29:40;24.40;71.70
41457;DHT22;27197;51.752;5.220;2023-08-17T14:32:11;24.40;71.70
41457;DHT22;27197;51.752;5.220;2023-08-17T14:34:42;24.40;71.50
41457;DHT22;27197;51.752;5.220;2023-08-17T14:37:12;24.40;71.70
41457;DHT22;27197;51.752;5.220;2023-08-17T14:39:41;24.40;71.70
41457;DHT22;27197;51.752;5.220;2023-08-17T14:42:08;24.40;71.70
41457;DHT22;27197;51.752;5.220;2023-08-17T14:44:38;24.40;71.80
41457;DHT22;27197;51.752;5.220;2023-08-17T14:49:58;24.40;71.70
41457;DHT22;27197;51.752;5.220;2023-08-17T14:52:29;24.40;71.60
41457;DHT22;27197;51.752;5.220;2023-08-17T14:55:00;24.40;71.40
41457;DHT22;27197;51.752;5.220;2023-08-17T14:57:30;24.30;71.70
41457;DHT22;27197;51.752;5.220;2023-08-17T15:00:00;24.30;71.70
41457;DHT22;27197;51.752;5.220;2023-08-17T15:02:30;24.30;71.80
41457;DHT22;27197;51.752;5.220;2023-08-17T15:05:04;24.40;71.70
41457;DHT22;27197;51.752;5.220;2023-08-17T15:07:37;24.30;71.70
41457;DHT22;27197;51.752;5.220;2023-08-17T15:10:09;24.40;71.70
41457;DHT22;27197;51.752;5.220;2023-08-17T15:12:42;24.40;71.80
41457;DHT22;27197;51.752;5.220;2023-08-17T15:15:11;24.40;71.70
41457;DHT22;27197;51.752;5.220;2023-08-17T15:17:44;24.40;71.90
41457;DHT22;27197;51.752;5.220;2023-08-17T15:20:17;24.40;71.70
41457;DHT22;27197;51.752;5.220;2023-08-17T15:22:50;24.40;71.70
41457;DHT22;27197;51.752;5.220;2023-08-17T15:25:19;24.40;71.70
41457;DHT22;27197;51.752;5.220;2023-08-17T15:27:50;24.40;71.80
41457;DHT22;27197;51.752;5.220;2023-08-17T15:30:23;24.40;71.80
41457;DHT22;27197;51.752;5.220;2023-08-17T15:32:56;24.40;71.80
41457;DHT22;27197;51.752;5.220;2023-08-17T15:35:26;24.40;72.50
41457;DHT22;27197;51.752;5.220;2023-08-17T15:37:56;24.40;71.70
41457;DHT22;27197;51.752;5.220;2023-08-17T15:40:30;24.40;71.90
41457;DHT22;27197;51.752;5.220;2023-08-17T15:42:59;24.40;71.70
41457;DHT22;27197;51.752;5.220;2023-08-17T15:45:28;24.40;71.80
41457;DHT22;27197;51.752;5.220;2023-08-17T15:47:59;24.40;71.70
41457;DHT22;27197;51.752;5.220;2023-08-17T15:50:33;24.40;71.90
41457;DHT22;27197;51.752;5.220;2023-08-17T15:53:07;24.40;71.80
41457;DHT22;27197;51.752;5.220;2023-08-17T15:55:37;24.40;72.00
41457;DHT22;27197;51.752;5.220;2023-08-17T15:58:10;24.40;71.90
41457;DHT22;27197;51.752;5.220;2023-08-17T16:00:40;24.40;71.70
41457;DHT22;27197;51.752;5.220;2023-08-17T16:03:11;24.40;71.90
41457;DHT22;27197;51.752;5.220;2023-08-17T16:05:41;24.40;71.70
41457;DHT22;27197;51.752;5.220;2023-08-17T16:08:11;24.40;72.20
41457;DHT22;27197;51.752;5.220;2023-08-17T16:22:09;24.40;71.90
41457;DHT22;27197;51.752;5.220;2023-08-17T16:24:43;24.40;71.90
41457;DHT22;27197;51.752;5.220;2023-08-17T16:27:13;24.40;71.90
41457;DHT22;27197;51.752;5.220;2023-08-17T16:29:48;24.40;72.10
41457;DHT22;27197;51.752;5.220;2023-08-17T16:32:20;24.40;71.70
41457;DHT22;27197;51.752;5.220;2023-08-17T16:34:52;24.40;72.00
41457;DHT22;27197;51.752;5.220;2023-08-17T16:37:24;24.30;71.60